Latest Weather Observations for High Range (Wanganderry)

IDN60801

Issued at 8:32 pm EST Tuesday 3 May 2016 (issued every 30 minutes, with the page automatically refreshed every 10 minutes)

About weather observations | Map of weather stations | Latest weather observations for NSW | Other Formats
Station Details ID: 068262 Name: HIGH RANGE AWS (WANGANDERRY) Lat: -34.33 Lon: 150.27 Height: 813.6 m
Data from the previous 72 hours. | See also: Recent months for locations in New South Wales
Date/Time
EST
Temp
°C
App
Temp
°C
Dew
Point
Rel
Hum
%
Delta-T
°C
Wind Press
QNH
hPa
Press
MSL
hPa
Rain
since 9 am
mm
Dir
 
Spd
km/h
Gust
km/h
Spd
kts
Gust
kts
03/08:30pm 12.9 3.2 5.6 61 3.6 WNW 46 65 25 35 1009.4 1008.7 0.0
03/08:13pm 12.8 3.0 5.5 61 3.6 WNW 46 69 25 37 1009.5 1008.8 0.0
03/08:00pm 12.8 3.6 5.5 61 3.6 WNW 43 56 23 30 1009.6 1008.9 0.0
03/07:30pm 12.8 3.9 5.2 60 3.7 WNW 41 59 22 32 1009.4 1008.7 0.0
03/07:20pm 13.0 4.5 5.2 59 3.8 WNW 39 57 21 31 1009.4 1008.7 0.0
03/07:00pm 13.1 3.8 5.0 58 3.9 WNW 43 57 23 31 1009.2 1008.5 0.0
03/06:35pm 13.1 4.9 4.8 57 4.0 WNW 37 56 20 30 1009.1 1008.4 0.0
03/06:30pm 13.2 4.6 4.9 57 4.0 WNW 39 56 21 30 1008.9 1008.3 0.0
03/06:02pm 13.4 5.5 4.6 55 4.2 WNW 35 59 19 32 1008.6 1007.9 0.0
03/06:00pm 13.3 5.4 4.5 55 4.2 WNW 35 46 19 25 1008.7 1008.0 0.0
03/05:30pm 13.7 5.0 4.3 53 4.5 WNW 39 54 21 29 1008.6 1007.9 0.0
03/05:13pm 13.8 5.9 4.1 52 4.6 WNW 35 56 19 30 1008.6 1007.9 0.0
03/05:00pm 14.1 6.2 4.1 51 4.8 WNW 35 52 19 28 1008.5 1007.8 0.0
03/04:30pm 14.8 6.1 3.9 48 5.2 WNW 39 54 21 29 1008.5 1007.8 0.0
03/04:00pm 15.6 8.2 4.0 46 5.6 WNW 32 41 17 22 1008.5 1007.8 0.0
03/03:36pm 16.1 8.7 4.2 45 5.8 WNW 32 50 17 27 1008.4 1007.7 0.0
03/03:30pm 15.9 7.1 3.7 44 5.9 WNW 39 54 21 29 1008.3 1007.6 0.0
03/03:16pm 16.1 8.0 3.2 42 6.2 WNW 35 54 19 29 1008.3 1007.6 0.0
03/03:00pm 16.5 8.9 3.9 43 6.1 WNW 33 44 18 24 1008.3 1007.6 0.0
03/02:30pm 16.4 9.0 3.8 43 6.1 WNW 32 48 17 26 1008.4 1007.7 0.0
03/02:00pm 17.1 10.9 4.4 43 6.3 NW 26 35 14 19 1008.7 1008.0 0.0
03/01:30pm 16.2 9.2 3.9 44 6.0 NW 30 39 16 21 1009.2 1008.5 0.0
03/01:00pm 16.4 9.8 4.4 45 5.9 WNW 28 43 15 23 1009.6 1008.9 0.0
03/12:30pm 15.7 8.6 3.5 44 5.8 WNW 30 43 16 23 1009.9 1009.3 0.0
03/12:00pm 15.7 9.5 4.1 46 5.6 WNW 26 37 14 20 1010.5 1009.8 0.0
03/11:30am 15.2 9.4 4.6 49 5.2 NW 24 33 13 18 1010.8 1010.1 0.0
03/11:00am 14.3 8.2 4.6 52 4.7 NW 26 35 14 19 1011.0 1010.4 0.0
03/10:30am 13.7 5.5 4.8 55 4.3 WNW 37 50 20 27 1011.6 1011.0 0.0
03/10:06am 13.3 6.5 5.0 57 4.0 WNW 30 48 16 26 1012.0 1011.3 0.0
03/10:00am 13.1 6.7 5.0 58 3.9 WNW 28 37 15 20 1012.1 1011.5 0.0
03/09:30am 12.3 5.4 4.8 60 3.6 WNW 30 39 16 21 1012.2 1011.6 0.0
03/09:00am 11.6 5.0 4.3 61 3.5 WNW 28 35 15 19 1012.6 1012.0 0.0
03/08:30am 10.6 5.5 4.1 64 3.0 WNW 20 33 11 18 1012.6 1012.0 0.0
03/08:00am 10.0 5.1 4.2 67 2.7 WNW 19 26 10 14 1012.6 1012.0 0.0
03/07:30am 9.6 4.1 4.0 68 2.6 WNW 22 28 12 15 1012.5 1011.9 0.0
03/07:00am 8.7 3.1 3.7 71 2.3 W 22 35 12 19 1012.5 1011.9 0.0
03/06:30am 8.1 2.9 3.8 74 2.0 W 20 26 11 14 1012.7 1012.1 0.0
03/06:00am 8.2 3.6 3.5 72 2.1 W 17 26 9 14 1012.7 1012.1 0.0
03/05:30am 8.7 3.1 3.5 70 2.4 W 22 28 12 15 1012.4 1011.8 0.0
03/05:00am 8.9 4.2 3.3 68 2.5 WNW 17 26 9 14 1012.2 1011.6 0.0
03/04:30am 9.0 3.7 3.2 67 2.6 W 20 35 11 19 1012.2 1011.6 0.0
03/04:00am 8.8 2.8 3.2 68 2.5 W 24 33 13 18 1012.1 1011.5 0.0
03/03:30am 9.4 2.7 3.4 66 2.7 W 28 41 15 22 1012.0 1011.3 0.0
03/03:00am 9.1 2.4 3.5 68 2.5 W 28 35 15 19 1012.1 1011.5 0.0
03/02:30am 9.3 1.6 3.5 67 2.6 W 33 43 18 23 1012.2 1011.6 0.0
03/02:00am 9.0 3.0 3.6 69 2.5 W 24 33 13 18 1012.6 1012.0 0.0
03/01:30am 8.7 3.1 3.5 70 2.4 W 22 28 12 15 1013.2 1012.6 0.0
03/01:00am 9.0 3.8 3.4 68 2.5 WNW 20 28 11 15 1013.6 1013.0 0.0
03/12:30am 9.0 3.8 3.4 68 2.5 WNW 20 24 11 13 1014.0 1013.4 0.0
03/12:00am 9.1 3.1 3.5 68 2.5 WNW 24 32 13 17 1014.5 1013.9 0.0
 
Date/Time
EST
Temp
°C
App
Temp
°C
Dew
Point
Rel
Hum
%
Delta-T
°C
Wind Press
QNH
hPa
Press
MSL
hPa
Rain
since 9 am
mm
Dir
 
Spd
km/h
Gust
km/h
Spd
kts
Gust
kts
02/11:30pm 9.4 4.7 3.4 66 2.7 WNW 17 24 9 13 1015.0 1014.4 0.0
02/11:00pm 9.0 5.3 2.6 64 2.8 NW 11 15 6 8 1015.0 1014.4 0.0
02/10:30pm 8.8 5.5 2.6 65 2.8 WNW 9 11 5 6 1015.1 1014.5 0.0
02/10:00pm 8.6 3.8 2.8 67 2.6 WNW 17 20 9 11 1014.7 1014.1 0.0
02/09:30pm 8.8 3.7 2.8 66 2.7 WNW 19 24 10 13 1014.6 1014.0 0.0
02/09:00pm 8.9 3.5 2.7 65 2.8 W 20 24 11 13 1014.9 1014.3 0.0
02/08:30pm 9.6 2.8 2.9 63 3.0 W 28 39 15 21 1014.9 1014.3 0.0
02/08:00pm 9.9 2.6 2.5 60 3.3 WSW 30 39 16 21 1014.9 1014.3 0.0
02/07:30pm 10.3 2.4 2.2 57 3.6 WSW 33 48 18 26 1014.9 1014.3 0.0
02/07:00pm 10.9 3.6 2.5 56 3.8 W 30 39 16 21 1014.7 1014.1 0.0
02/06:30pm 11.2 3.5 2.5 55 3.9 WSW 32 48 17 26 1014.2 1013.7 0.0
02/06:00pm 11.4 4.5 2.4 54 4.1 W 28 37 15 20 1014.2 1013.7 0.0
02/05:30pm 12.2 6.3 1.8 49 4.7 W 22 32 12 17 1014.2 1013.7 0.0
02/05:00pm 13.2 7.9 2.1 47 5.1 WNW 19 26 10 14 1014.0 1013.4 0.0
02/04:30pm 13.8 8.1 3.0 48 5.0 WNW 22 28 12 15 1013.9 1013.3 0.0
02/04:00pm 14.3 8.8 4.0 50 4.9 WNW 22 32 12 17 1013.8 1013.2 0.0
02/03:30pm 14.8 9.0 4.5 50 5.0 WNW 24 32 13 17 1013.9 1013.3 0.0
02/03:00pm 15.2 10.0 3.4 45 5.6 WNW 20 30 11 16 1014.0 1013.4 0.0
02/02:30pm 15.4 10.2 3.5 45 5.7 WNW 20 26 11 14 1014.0 1013.4 0.0
02/02:00pm 15.2 10.2 3.4 45 5.6 W 19 28 10 15 1013.9 1013.3 0.0
02/01:30pm 15.4 9.7 2.9 43 5.9 W 22 28 12 15 1013.8 1013.2 0.0
02/01:00pm 15.0 9.0 3.2 45 5.6 W 24 33 13 18 1014.7 1014.1 0.0
02/12:30pm 15.1 9.7 2.6 43 5.9 W 20 32 11 17 1015.1 1014.5 0.0
02/12:00pm 14.1 8.9 3.6 49 5.0 W 20 26 11 14 1014.8 1014.2 0.0
02/11:30am 13.2 7.3 3.8 53 4.4 WNW 24 33 13 18 1015.5 1015.0 0.0
02/11:00am 12.3 6.8 3.8 56 4.0 WNW 22 32 12 17 1016.0 1015.4 0.0
02/10:30am 12.0 7.0 4.5 60 3.6 WNW 20 26 11 14 1016.3 1015.8 0.0
02/10:00am 11.4 5.5 3.9 60 3.5 W 24 32 13 17 1016.6 1016.1 0.0
02/09:30am 10.6 3.6 3.9 63 3.1 W 30 39 16 21 1016.9 1016.4 0.0
02/09:00am 9.7 2.6 3.7 66 2.8 W 30 37 16 20 1017.2 1016.6 0.8
02/08:30am 9.0 1.9 3.6 69 2.5 W 30 39 16 21 1017.1 1016.5 0.8
02/08:00am 7.9 0.2 3.2 72 2.1 W 33 39 18 21 1017.2 1016.6 0.8
02/07:30am 7.7 -1.2 2.8 71 2.2 W 39 46 21 25 1016.9 1016.4 0.8
02/07:00am 6.8 -1.4 2.9 76 1.7 W 35 44 19 24 1016.8 1016.3 0.8
02/06:30am 6.0 -1.6 3.0 81 1.3 W 32 39 17 21 1016.8 1016.3 0.8
02/06:00am 6.4 -1.4 2.9 78 1.5 W 33 44 18 24 1016.6 1016.1 0.8
02/05:30am 6.7 -0.6 2.6 75 1.8 W 30 37 16 20 1016.3 1015.8 0.8
02/05:00am 6.7 -0.9 2.6 75 1.8 W 32 39 17 21 1016.2 1015.6 0.8
02/04:30am 6.6 -0.2 2.9 77 1.6 W 28 37 15 20 1015.9 1015.3 0.8
02/04:00am 7.0 -0.6 3.1 76 1.7 WSW 32 39 17 21 1015.7 1015.1 0.8
02/03:30am 7.1 -0.1 3.0 75 1.8 WSW 30 37 16 20 1015.8 1015.2 0.8
02/03:00am 7.3 0.5 3.2 75 1.8 WSW 28 33 15 18 1016.1 1015.5 0.8
02/02:30am 6.9 1.8 3.2 77 1.6 WSW 19 24 10 13 1016.4 1015.9 0.8
02/02:00am 6.8 4.9 3.1 77 1.6 S 2 7 1 4 1016.8 1016.3 0.8
02/01:30am 7.1 3.6 3.3 77 1.7 W 11 17 6 9 1016.8 1016.3 0.8
02/01:00am 8.1 2.6 3.8 74 1.9 W 22 28 12 15 1016.6 1016.1 0.8
02/12:30am 8.5 2.6 3.9 73 2.1 W 24 32 13 17 1016.7 1016.2 0.8
02/12:00am 8.9 2.6 3.9 71 2.3 W 26 37 14 20 1016.8 1016.3 0.8
 
Date/Time
EST
Temp
°C
App
Temp
°C
Dew
Point
Rel
Hum
%
Delta-T
°C
Wind Press
QNH
hPa
Press
MSL
hPa
Rain
since 9 am
mm
Dir
 
Spd
km/h
Gust
km/h
Spd
kts
Gust
kts
01/11:30pm 9.0 2.0 4.0 71 2.3 WSW 30 41 16 22 1016.7 1016.2 0.8
01/11:00pm 9.7 2.7 4.3 69 2.5 WSW 30 46 16 25 1016.8 1016.3 0.8
01/10:30pm 9.8 2.4 4.2 68 2.6 WSW 32 41 17 22 1016.6 1016.1 0.8
01/10:00pm 10.3 2.4 4.2 66 2.8 WSW 35 48 19 26 1016.6 1016.1 0.8
01/09:30pm 10.6 3.0 4.1 64 3.0 W 33 46 18 25 1016.5 1016.0 0.8
01/09:00pm 10.9 2.9 3.9 62 3.3 WSW 35 46 19 25 1016.4 1015.9 0.8
01/08:30pm 11.1 4.4 3.9 61 3.4 W 28 43 15 23 1016.2 1015.6 0.8
01/08:00pm 11.4 5.2 4.2 61 3.4 W 26 43 14 23 1015.8 1015.2 0.8
01/07:30pm 12.0 6.0 5.4 64 3.2 W 26 39 14 21 1015.3 1014.8 0.8
01/07:00pm 12.6 6.4 6.2 65 3.2 W 28 46 15 25 1015.0 1014.4 0.8
01/06:30pm 13.3 6.9 6.9 65 3.2 W 30 46 16 25 1014.7 1014.1 0.8
01/06:00pm 14.4 7.5 7.2 62 3.7 W 33 54 18 29 1014.0 1013.4 0.8
01/05:36pm 14.7 8.8 7.5 62 3.7 WNW 28 48 15 26 1013.7 1013.1 0.8
01/05:30pm 14.6 9.1 7.4 62 3.7 W 26 44 14 24 1013.6 1013.0 0.8
01/05:10pm 15.6 8.8 7.1 57 4.4 WNW 32 50 17 27 1013.2 1012.6 0.8
01/05:00pm 16.1 9.3 7.1 55 4.7 WNW 32 48 17 26 1012.9 1012.3 0.8
01/04:39pm 16.5 9.7 6.9 53 5.0 WNW 32 56 17 30 1012.7 1012.1 0.8
01/04:30pm 16.5 10.1 6.9 53 5.0 WNW 30 46 16 25 1012.8 1012.2 0.8
01/04:11pm 17.3 11.0 7.4 52 5.2 W 30 56 16 30 1012.6 1012.0 0.8
01/04:00pm 17.6 10.9 7.4 51 5.4 WNW 32 44 17 24 1012.7 1012.1 0.8
01/03:30pm 18.3 9.5 7.1 48 5.9 WNW 43 67 23 36 1012.4 1011.8 0.8
01/03:00pm 18.7 9.8 7.5 48 5.9 WNW 44 72 24 39 1011.9 1011.2 0.8
01/02:30pm 18.5 10.8 10.3 59 4.6 WNW 41 61 22 33 1012.1 1011.5 0.8
01/02:08pm 18.2 12.3 11.3 64 3.9 WNW 33 56 18 30 1012.1 1011.5 0.8
01/02:00pm 18.1 11.7 12.1 68 3.5 WNW 37 52 20 28 1012.3 1011.7 0.8
01/01:40pm 17.2 12.4 11.7 70 3.1 WNW 28 50 15 27 1012.2 1011.6 0.8
01/01:30pm 17.7 14.5 13.0 74 2.7 WNW 22 41 12 22 1012.3 1011.7 0.8
01/01:00pm 15.8 13.0 13.3 85 1.5 WNW 20 32 11 17 1012.6 1012.0 0.8
01/12:30pm 15.6 10.5 13.1 85 1.4 WNW 32 54 17 29 1012.9 1012.3 0.6
01/12:00pm 18.2 12.7 11.7 66 3.7 WNW 32 50 17 27 1013.2 1012.6 0.0
01/11:37am 19.3 14.5 11.8 62 4.3 NW 28 50 15 27 1013.2 1012.6 0.0
01/11:30am 19.3 15.5 12.3 64 4.1 NW 24 41 13 22 1013.4 1012.8 0.0
01/11:00am 18.0 14.4 12.0 68 3.4 NW 22 32 12 17 1014.1 1013.5 0.0
01/10:30am 17.9 14.8 12.1 69 3.3 WNW 20 33 11 18 1014.5 1013.9 0.0
01/10:00am 17.6 13.2 11.6 68 3.4 NW 26 41 14 22 1014.6 1014.0 0.0
01/09:30am 17.0 14.6 11.5 70 3.1 NW 15 26 8 14 1014.6 1012.7 0.0
01/09:00am 17.6 14.9 11.6 68 3.4 NW 17 26 9 14 1014.6 1012.7 0.2
01/08:30am 16.3 13.1 11.2 72 2.9 NW 19 26 10 14 1014.9 1013.0 0.2
01/08:00am 15.6 13.4 12.2 80 1.9 NW 15 24 8 13 1015.0 1013.1 0.2
01/07:30am 15.4 12.6 12.5 83 1.7 WNW 19 28 10 15 1015.1 1013.2 0.2
01/07:00am 15.5 12.5 12.4 82 1.8 WNW 20 35 11 19 1014.9 1013.0 0.2
01/06:30am 15.5 11.8 12.8 84 1.6 WNW 24 44 13 24 1015.5 1013.7 0.2
01/06:00am 15.5 12.5 12.6 83 1.7 WNW 20 30 11 16 1015.2 1013.3 0.2
01/05:30am 15.5 12.5 12.4 82 1.8 WNW 20 32 11 17 1014.8 1012.9 0.2
01/05:00am 15.1 12.2 12.2 83 1.6 NW 19 28 10 15 1015.0 1013.1 0.2
01/04:30am 15.0 11.1 12.0 82 1.7 NW 24 39 13 21 1015.1 1013.2 0.2
01/04:00am 15.0 12.0 12.0 82 1.7 NNW 19 26 10 14 1014.8 1012.9 0.2
01/03:30am 14.6 11.7 12.3 86 1.3 NNW 19 22 10 12 1014.8 1012.9 0.2
01/03:00am 14.5 11.8 11.8 84 1.5 N 17 20 9 11 1014.8 1012.9 0.2
01/02:30am 14.7 12.1 12.0 84 1.5 N 17 19 9 10 1015.0 1013.1 0.2
01/02:00am 14.4 12.9 11.9 85 1.4 N 11 13 6 7 1015.2 1013.3 0.2
01/01:30am 14.8 11.8 11.9 83 1.6 NNW 19 22 10 12 1016.1 1014.2 0.2
01/01:00am 15.0 12.7 11.6 80 1.9 NNW 15 17 8 9 1016.2 1014.3 0.2
01/12:30am 15.4 13.1 11.8 79 2.0 NW 15 17 8 9 1016.4 1014.6 0.2
01/12:00am 15.2 13.0 12.2 82 1.7 NW 15 19 8 10 1017.3 1015.4 0.2
 
Date/Time
EST
Temp
°C
App
Temp
°C
Dew
Point
Rel
Hum
%
Delta-T
°C
Wind Press
QNH
hPa
Press
MSL
hPa
Rain
since 9 am
mm
Dir
 
Spd
km/h
Gust
km/h
Spd
kts
Gust
kts
30/11:30pm 14.7 13.4 12.4 86 1.3 NNW 11 17 6 9 1017.9 1016.1 0.2
30/11:00pm 14.6 13.2 12.3 86 1.3 N 11 13 6 7 1018.2 1016.4 0.2
30/10:30pm 15.2 13.1 12.3 83 1.6 NNW 15 17 8 9 1018.6 1016.8 0.2
30/10:00pm 15.4 12.9 12.2 81 1.8 NNW 17 20 9 11 1018.8 1017.0 0.2
30/09:30pm 16.0 13.1 12.4 79 2.1 NW 19 24 10 13 1018.9 1017.1 0.2
30/09:00pm 15.9 13.1 12.5 80 1.9 NW 19 22 10 12 1019.0 1017.2 0.2

Other Formats:

Comma delimited format used in spreadsheet applications
http://www.bom.gov.au/fwo/IDN60801/IDN60801.99742.axf

JavaScript Object Notation format (JSON) in row-major order
http://www.bom.gov.au/fwo/IDN60801/IDN60801.99742.json